Time;durP1;ratioP1;P1;durP2;ratioP2;P2;SDS_P1;SDS_P2;PMS_P1;PMS_P2;Temp;Humidity;BMP_temperature;BMP_pressure;BME280_temperature;BME280_humidity;BME280_pressure;Samples;Min_cycle;Max_cycle;Signal;HPM_P1;HPM_P2
2020/12/04 00:02:06;;;;;;;3.38;3.28;;;;;;;4.63;76.26;96362.75;5012735;28;20498;-75
2020/12/04 00:04:32;;;;;;;3.53;3.33;;;;;;;4.66;76.47;96370.22;5000477;28;20033;-72
2020/12/04 00:06:58;;;;;;;1.73;1.63;;;;;;;4.69;76.27;96369.56;5015990;28;20041;-71
2020/12/04 00:09:24;;;;;;;3.13;3.03;;;;;;;4.70;75.78;96365.75;4981951;28;20028;-72
2020/12/04 00:11:49;;;;;;;4.30;4.10;;;;;;;4.70;75.77;96360.34;4995453;28;20475;-73
2020/12/04 00:14:15;;;;;;;4.10;3.83;;;;;;;4.70;75.63;96359.53;5016432;28;20026;-72
2020/12/04 00:16:40;;;;;;;3.63;3.42;;;;;;;4.69;75.58;96363.38;5012302;28;20022;-72
2020/12/04 00:19:06;;;;;;;4.63;4.32;;;;;;;4.65;75.68;96363.22;5015782;28;20581;-73
2020/12/04 00:21:31;;;;;;;3.55;3.35;;;;;;;4.64;76.00;96356.22;4996149;28;20521;-72
2020/12/04 00:23:56;;;;;;;4.72;4.53;;;;;;;4.64;75.75;96356.22;4976067;28;20034;-72
2020/12/04 00:26:22;;;;;;;4.55;4.25;;;;;;;4.65;76.13;96352.38;5018522;28;20463;-71
2020/12/04 00:28:47;;;;;;;3.33;3.13;;;;;;;4.67;75.93;96360.19;4985851;28;20478;-72
2020/12/04 00:31:13;;;;;;;4.05;3.85;;;;;;;4.64;75.85;96350.78;4996531;28;20030;-74
2020/12/04 00:33:38;;;;;;;4.95;4.70;;;;;;;4.69;76.00;96369.56;4994928;28;20030;-72
2020/12/04 00:36:03;;;;;;;3.53;3.33;;;;;;;4.68;75.61;96362.56;5001389;28;20026;-72
2020/12/04 00:38:29;;;;;;;2.78;2.67;;;;;;;4.70;75.71;96360.34;5020153;28;20033;-73
2020/12/04 00:40:54;;;;;;;4.03;3.83;;;;;;;4.68;75.29;96362.56;5031306;28;20036;-73
2020/12/04 00:43:20;;;;;;;3.10;3.00;;;;;;;4.69;75.67;96369.56;5002489;28;20104;-73
2020/12/04 00:45:46;;;;;;;4.00;3.80;;;;;;;4.68;75.54;96359.84;5020511;28;20036;-71
2020/12/04 00:48:11;;;;;;;3.75;3.58;;;;;;;4.64;75.54;96356.22;5017746;28;20375;-72
2020/12/04 00:50:37;;;;;;;4.07;3.78;;;;;;;4.63;75.50;96354.66;4966581;28;20055;-71
2020/12/04 00:53:07;;;;;;;5.30;5.03;;;;;;;4.59;75.11;96359.13;4921768;28;20079;-72
2020/12/04 00:55:33;;;;;;;4.18;3.88;;;;;;;4.59;75.69;96359.13;4924391;28;20035;-72
2020/12/04 00:57:58;;;;;;;5.00;4.60;;;;;;;4.57;75.81;96355.97;4945391;28;20069;-75
2020/12/04 01:00:24;;;;;;;3.90;3.70;;;;;;;4.59;76.28;96348.28;4920026;28;20035;-73
2020/12/04 01:02:49;;;;;;;4.50;4.13;;;;;;;4.61;76.15;96348.75;4932864;28;20141;-71
2020/12/04 01:05:15;;;;;;;5.20;4.75;;;;;;;4.58;75.63;96340.50;4921296;28;20050;-71
2020/12/04 01:07:40;;;;;;;3.80;3.60;;;;;;;4.60;75.62;96340.97;4946406;28;20046;-71
2020/12/04 01:10:06;;;;;;;4.97;4.78;;;;;;;4.60;75.52;96340.97;4943354;28;20030;-72
2020/12/04 01:12:31;;;;;;;4.93;4.72;;;;;;;4.60;75.58;96343.66;4959777;28;20117;-73
2020/12/04 01:14:57;;;;;;;4.32;4.13;;;;;;;4.57;75.44;96349.72;4937872;28;20055;-71
2020/12/04 01:17:22;;;;;;;4.30;4.10;;;;;;;4.57;75.26;96345.13;4934751;28;20082;-72
2020/12/04 01:19:47;;;;;;;4.10;3.90;;;;;;;4.59;75.09;96344.81;4949770;28;20069;-72
2020/12/04 01:22:13;;;;;;;3.83;3.55;;;;;;;4.59;75.06;96342.88;4910472;28;20031;-77
2020/12/04 01:24:39;;;;;;;4.07;3.88;;;;;;;4.58;74.56;96349.41;4946955;28;20032;-75
2020/12/04 01:27:05;;;;;;;4.25;4.05;;;;;;;4.55;74.54;96341.94;4971572;28;20028;-73
2020/12/04 01:29:30;;;;;;;3.60;3.40;;;;;;;4.54;74.71;96345.75;4963059;28;20020;-73
2020/12/04 01:31:56;;;;;;;2.95;2.85;;;;;;;4.56;74.88;96346.25;4956949;28;20566;-73
2020/12/04 01:34:21;;;;;;;3.67;3.47;;;;;;;4.52;74.69;96337.97;4915519;28;20040;-73
2020/12/04 01:36:49;;;;;;;4.18;3.97;;;;;;;4.51;74.67;96338.31;4943647;28;20058;-74
2020/12/04 01:39:17;;;;;;;3.65;3.45;;;;;;;4.54;74.70;96340.34;4919299;28;20030;-73
2020/12/04 01:41:42;;;;;;;3.65;3.42;;;;;;;4.54;74.98;96334.94;4935836;28;20031;-73
2020/12/04 01:44:08;;;;;;;4.10;3.90;;;;;;;4.57;74.67;96338.91;4955793;28;20039;-73
2020/12/04 01:46:34;;;;;;;3.25;3.15;;;;;;;4.50;74.23;96334.81;4964091;23;20432;-72
2020/12/04 01:48:59;;;;;;;2.72;2.63;;;;;;;4.48;73.57;96341.66;4966914;28;20028;-73
2020/12/04 01:51:26;;;;;;;2.60;2.50;;;;;;;4.47;73.50;96345.50;4907446;28;20942;-73
2020/12/04 01:53:52;;;;;;;2.83;2.72;;;;;;;4.53;73.76;96349.59;4916584;28;20051;-73
2020/12/04 01:56:18;;;;;;;2.70;2.60;;;;;;;4.53;73.89;96344.19;4942625;28;20473;-71
2020/12/04 01:58:43;;;;;;;3.08;2.88;;;;;;;4.59;73.59;96342.88;4925661;28;20031;-72
2020/12/04 02:01:13;;;;;;;3.03;2.92;;;;;;;4.61;72.70;96340.63;4932572;28;20028;-71
2020/12/04 02:03:41;;;;;;;3.20;3.10;;;;;;;4.61;72.73;96337.94;4929725;28;20039;-72
2020/12/04 02:06:17;;;;;;;3.65;3.45;;;;;;;4.62;72.59;96336.81;4936683;28;20433;-72
2020/12/04 02:09:00;;;;;;;3.28;3.17;;;;;;;4.63;72.36;96324.88;4920887;28;20036;-72
2020/12/04 02:11:27;;;;;;;2.83;2.72;;;;;;;4.59;72.14;96326.66;4923942;28;20047;-72
2020/12/04 02:13:55;;;;;;;3.17;3.08;;;;;;;4.54;72.76;96326.81;4917677;28;20036;-70
2020/12/04 02:16:22;;;;;;;3.35;3.25;;;;;;;4.56;73.10;96330.00;4925658;28;20025;-72
2020/12/04 02:18:49;;;;;;;3.25;3.13;;;;;;;4.50;72.94;96331.31;4959230;28;20135;-72
2020/12/04 02:21:15;;;;;;;3.22;3.13;;;;;;;4.51;73.66;96322.88;4927407;28;20111;-71
2020/12/04 02:23:45;;;;;;;3.00;2.90;;;;;;;4.51;73.42;96322.06;4955324;28;20369;-72
2020/12/04 02:26:15;;;;;;;3.30;3.20;;;;;;;4.52;74.00;96326.38;4935059;28;20039;-71
2020/12/04 02:28:40;;;;;;;3.60;3.50;;;;;;;4.52;73.59;96331.78;4926421;28;20389;-70
2020/12/04 02:31:07;;;;;;;3.03;2.90;;;;;;;4.54;74.32;96332.22;4967299;28;20035;-72
2020/12/04 02:33:33;;;;;;;4.10;3.90;;;;;;;4.53;73.79;96333.38;4907825;28;20450;-71
2020/12/04 02:35:59;;;;;;;3.88;3.67;;;;;;;4.52;73.72;96332.56;4933024;28;20454;-71
2020/12/04 02:38:25;;;;;;;4.00;3.80;;;;;;;4.54;73.86;96324.13;4924552;28;20043;-72
2020/12/04 02:40:51;;;;;;;4.30;4.10;;;;;;;4.55;73.50;96331.13;4929848;28;20079;-70
2020/12/04 02:43:18;;;;;;;4.05;3.85;;;;;;;4.51;74.39;96336.41;4957896;28;20032;-71
2020/12/04 02:45:43;;;;;;;3.95;3.75;;;;;;;4.49;74.26;96327.03;4910184;28;20082;-71
2020/12/04 02:48:09;;;;;;;2.83;2.72;;;;;;;4.53;73.58;96344.19;4927235;28;20032;-72
2020/12/04 02:50:35;;;;;;;3.40;3.30;;;;;;;4.54;73.80;96345.75;4916774;28;20019;-71
2020/12/04 02:53:01;;;;;;;3.13;3.03;;;;;;;4.56;73.88;96351.66;4923901;28;20044;-70
2020/12/04 02:55:26;;;;;;;3.05;2.95;;;;;;;4.55;74.08;96348.13;4941932;28;20036;-70
2020/12/04 02:57:52;;;;;;;3.63;3.50;;;;;;;4.56;73.44;96346.25;4935994;28;20043;-71
2020/12/04 03:00:18;;;;;;;4.03;3.78;;;;;;;4.54;73.31;96346.56;4919122;28;20032;-73
2020/12/04 03:02:43;;;;;;;2.95;2.75;;;;;;;4.53;72.96;96344.19;4985079;28;20095;-73
2020/12/04 03:05:09;;;;;;;3.17;3.08;;;;;;;4.49;73.01;96344.03;4927704;28;20445;-72
2020/12/04 03:07:36;;;;;;;2.78;2.58;;;;;;;4.45;72.75;96343.09;4956522;28;20042;-72
2020/12/04 03:10:04;;;;;;;2.70;2.60;;;;;;;4.45;72.78;96347.72;4954267;28;20115;-71
2020/12/04 03:12:30;;;;;;;2.88;2.58;;;;;;;4.47;72.49;96349.00;4939285;28;20033;-71
2020/12/04 03:14:55;;;;;;;3.47;2.58;;;;;;;4.49;72.17;96343.25;4943336;28;20028;-70
2020/12/04 03:17:20;;;;;;;2.08;1.98;;;;;;;4.48;71.53;96336.25;4931397;28;20051;-73
2020/12/04 03:19:46;;;;;;;2.88;2.78;;;;;;;4.51;71.80;96341.00;4931780;28;20426;-72
2020/12/04 03:22:11;;;;;;;1.90;1.80;;;;;;;4.49;71.80;96332.44;4930593;28;20027;-73
2020/12/04 03:24:37;;;;;;;2.92;2.83;;;;;;;4.49;72.30;96349.44;4905536;28;20035;-72
2020/12/04 03:27:02;;;;;;;2.53;2.42;;;;;;;4.50;72.07;96339.44;4923942;28;20023;-71
2020/12/04 03:29:27;;;;;;;3.60;3.30;;;;;;;4.50;72.44;96342.16;4917623;28;20039;-73
2020/12/04 03:31:53;;;;;;;3.28;2.92;;;;;;;4.47;72.36;96334.69;4930560;28;20081;-72
2020/12/04 03:34:18;;;;;;;3.97;3.65;;;;;;;4.47;72.30;96340.09;4925262;28;20043;-72
2020/12/04 03:36:44;;;;;;;3.22;3.13;;;;;;;4.46;72.57;96343.91;4930442;28;20051;-73
2020/12/04 03:39:09;;;;;;;3.92;3.72;;;;;;;4.46;72.74;96346.63;4910468;28;20492;-73
2020/12/04 03:41:35;;;;;;;4.15;3.95;;;;;;;4.46;73.01;96349.31;4929281;28;20110;-71
2020/12/04 03:44:00;;;;;;;3.55;3.30;;;;;;;4.47;73.12;96345.50;4934606;28;20118;-71
2020/12/04 03:46:25;;;;;;;3.08;2.97;;;;;;;4.49;73.15;96340.56;4900509;28;20061;-70
2020/12/04 03:48:51;;;;;;;3.88;3.65;;;;;;;4.49;72.88;96338.63;4915809;28;20039;-71
2020/12/04 03:51:16;;;;;;;4.10;3.90;;;;;;;4.51;73.12;96330.19;4960068;28;20029;-72
2020/12/04 03:53:42;;;;;;;2.50;2.40;;;;;;;4.54;73.47;96338.47;4921059;28;20034;-70
2020/12/04 03:56:07;;;;;;;3.83;3.10;;;;;;;4.56;73.21;96346.25;4942146;28;20051;-71
2020/12/04 03:58:32;;;;;;;3.30;3.10;;;;;;;4.57;73.02;96350.53;4923084;28;22020;-71
2020/12/04 04:00:58;;;;;;;3.35;3.22;;;;;;;4.58;73.03;96362.16;4964844;28;20038;-73
2020/12/04 04:03:23;;;;;;;3.88;3.67;;;;;;;4.60;73.40;96355.31;4942323;28;20046;-73
2020/12/04 04:05:49;;;;;;;4.38;4.18;;;;;;;4.57;73.23;96355.97;4940479;28;20138;-73
2020/12/04 04:08:14;;;;;;;3.78;3.55;;;;;;;4.56;73.21;96359.78;4939307;28;20127;-73
2020/12/04 04:10:40;;;;;;;3.42;3.30;;;;;;;4.54;73.20;96367.41;4951121;28;20025;-72
2020/12/04 04:13:05;;;;;;;4.07;3.88;;;;;;;4.55;73.16;96363.59;4932465;28;20031;-72
2020/12/04 04:15:31;;;;;;;4.00;3.80;;;;;;;4.55;72.81;96366.28;4910209;28;20031;-72
2020/12/04 04:17:59;;;;;;;3.30;3.20;;;;;;;4.54;73.04;96365.50;4927449;28;20024;-71
2020/12/04 04:20:25;;;;;;;5.65;3.55;;;;;;;4.55;73.25;96371.72;4976715;28;20451;-71
2020/12/04 04:22:51;;;;;;;2.80;2.70;;;;;;;4.54;72.81;96372.81;4925238;28;20028;-72
2020/12/04 04:25:16;;;;;;;2.70;2.60;;;;;;;4.55;73.21;96374.41;4936061;28;20031;-72
2020/12/04 04:27:42;;;;;;;2.30;2.20;;;;;;;4.54;73.37;96375.53;4903286;28;20072;-72
2020/12/04 04:30:08;;;;;;;3.00;2.90;;;;;;;4.49;72.97;96381.91;4915081;28;20019;-72
2020/12/04 04:32:34;;;;;;;2.80;2.63;;;;;;;4.50;72.75;96383.50;4930897;28;20021;-71
2020/12/04 04:35:00;;;;;;;2.47;2.35;;;;;;;4.52;73.40;96385.88;4933247;28;20035;-71
2020/12/04 04:37:25;;;;;;;2.53;2.42;;;;;;;4.45;72.97;96380.19;4933184;28;20036;-71
2020/12/04 04:39:51;;;;;;;2.72;2.63;;;;;;;4.42;73.19;96387.03;4947902;28;20065;-71
2020/12/04 04:42:17;;;;;;;2.45;2.30;;;;;;;4.39;73.28;96373.38;4921565;28;20469;-71
2020/12/04 04:44:44;;;;;;;2.42;2.33;;;;;;;4.36;73.75;96378.31;4940447;28;20037;-71
2020/12/04 04:47:12;;;;;;;2.33;2.22;;;;;;;4.32;73.58;96380.09;4935416;28;20497;-71
2020/12/04 04:49:45;;;;;;;2.83;2.72;;;;;;;4.28;74.13;96379.16;4957248;28;20038;-71
2020/12/04 04:52:11;;;;;;;2.42;2.33;;;;;;;4.30;74.24;96385.00;4904126;28;20028;-72
2020/12/04 04:54:42;;;;;;;4.35;2.95;;;;;;;4.27;74.32;96390.28;4910796;28;20028;-72
2020/12/04 04:57:08;;;;;;;2.33;2.22;;;;;;;4.25;73.86;96392.50;4926336;28;20251;-71
2020/12/04 04:59:34;;;;;;;2.42;2.33;;;;;;;4.15;74.81;96389.03;4926202;28;20046;-72
2020/12/04 05:01:59;;;;;;;2.85;2.75;;;;;;;4.09;75.13;96387.63;4923527;28;20107;-72
2020/12/04 05:04:25;;;;;;;3.17;2.97;;;;;;;4.10;74.88;96393.81;4926426;28;20089;-72
2020/12/04 05:06:50;;;;;;;2.58;2.38;;;;;;;4.08;75.87;96388.75;4970344;28;20086;-71
2020/12/04 05:09:28;;;;;;;2.47;2.38;;;;;;;4.07;76.02;96386.38;4917123;28;20032;-72
2020/12/04 05:12:00;;;;;;;2.00;1.90;;;;;;;4.05;76.05;96388.59;4922163;28;20019;-72
2020/12/04 05:14:27;;;;;;;2.78;2.67;;;;;;;4.00;75.85;96390.38;4933550;28;20685;-73
2020/12/04 05:16:57;;;;;;;2.67;2.58;;;;;;;3.94;76.75;96388.13;4920944;28;20070;-71
2020/12/04 05:19:42;;;;;;;2.35;2.25;;;;;;;3.90;76.50;96388.00;4987014;28;20435;-71
2020/12/04 05:22:13;;;;;;;5.10;2.25;;;;;;;3.87;76.35;96391.34;4907394;28;20071;-72
2020/12/04 05:24:39;;;;;;;2.28;2.17;;;;;;;3.82;76.46;96394.19;4924466;28;20042;-72
2020/12/04 05:27:28;;;;;;;1.80;1.70;;;;;;;3.68;76.57;96386.28;4931033;28;20031;-71
2020/12/04 05:29:58;;;;;;;1.77;1.67;;;;;;;3.62;76.99;96387.53;4929366;28;20548;-72
2020/12/04 05:32:25;;;;;;;1.30;1.30;;;;;;;3.55;76.42;96392.63;4933197;28;20032;-72
2020/12/04 05:34:51;;;;;;;1.10;1.10;;;;;;;3.51;76.63;96387.09;4916817;28;20059;-72
2020/12/04 05:37:19;;;;;;;1.42;1.33;;;;;;;3.48;76.66;96393.13;4946186;28;20031;-71
2020/12/04 05:39:46;;;;;;;1.27;1.17;;;;;;;3.44;77.08;96394.88;4938572;28;20393;-71
2020/12/04 05:42:35;;;;;;;1.05;1.05;;;;;;;3.39;76.76;96403.13;4906936;28;20027;-73
2020/12/04 05:45:01;;;;;;;0.75;0.75;;;;;;;3.38;77.25;96401.56;4932370;28;20123;-69
2020/12/04 05:47:42;;;;;;;0.90;0.90;;;;;;;3.42;76.67;96405.22;4905995;28;20055;-70
2020/12/04 05:50:13;;;;;;;1.00;1.00;;;;;;;3.39;77.41;96400.41;4924000;28;20026;-69
2020/12/04 05:52:39;;;;;;;3.20;1.23;;;;;;;3.34;77.70;96409.47;4926582;29;20032;-70
2020/12/04 05:55:06;;;;;;;0.70;0.70;;;;;;;3.30;76.56;96409.34;4976951;28;20071;-70
2020/12/04 05:57:50;;;;;;;0.95;0.95;;;;;;;3.23;77.49;96409.00;4937395;28;20030;-70
2020/12/04 06:00:16;;;;;;;0.80;0.80;;;;;;;3.10;78.05;96409.94;4921914;28;20024;-69
2020/12/04 06:02:42;;;;;;;0.88;0.88;;;;;;;3.09;78.10;96414.53;4942873;28;20129;-70
2020/12/04 06:05:12;;;;;;;0.73;0.73;;;;;;;3.05;77.74;96416.28;4935494;28;20446;-70
2020/12/04 06:07:39;;;;;;;1.50;1.40;;;;;;;3.03;78.50;96420.41;4932822;28;20035;-71
2020/12/04 06:10:07;;;;;;;2.42;2.20;;;;;;;3.02;78.56;96418.81;4927023;28;20024;-70
2020/12/04 06:12:32;;;;;;;0.88;0.88;;;;;;;3.03;78.71;96417.72;4899220;28;20119;-69
2020/12/04 06:15:29;;;;;;;0.88;0.88;;;;;;;3.11;78.02;96427.72;4911287;28;20126;-71
2020/12/04 06:18:05;;;;;;;0.77;0.77;;;;;;;3.16;78.30;96430.28;4917063;28;20031;-69
2020/12/04 06:20:41;;;;;;;;;;;;;;;3.17;77.52;96434.56;4932253;28;20082;-70
2020/12/04 06:23:10;;;;;;;1.85;0.60;;;;;;;3.21;77.91;96443.59;4922414;28;19911;-69
2020/12/04 06:25:50;;;;;;;0.85;0.85;;;;;;;3.29;77.89;96440.13;4927392;28;20042;-70
2020/12/04 06:28:17;;;;;;;0.70;0.70;;;;;;;3.30;77.52;96444.44;4916849;28;20024;-70
2020/12/04 06:31:14;;;;;;;0.80;0.80;;;;;;;3.37;77.55;96445.88;4952340;28;20414;-70
2020/12/04 06:33:50;;;;;;;0.50;0.50;;;;;;;3.37;77.03;96445.88;4920325;28;20095;-70
2020/12/04 06:36:30;;;;;;;;;;;;;;;3.39;76.83;96449.84;4936261;28;20092;-69
2020/12/04 06:38:57;;;;;;;0.77;0.77;;;;;;;3.42;77.44;96453.81;4920934;28;19927;-70
2020/12/04 06:41:33;;;;;;;0.70;0.70;;;;;;;3.51;77.77;96459.25;4932570;28;20031;-71
2020/12/04 06:44:03;;;;;;;1.45;0.75;;;;;;;3.53;77.62;96460.50;4957997;28;20028;-71
2020/12/04 06:46:40;;;;;;;0.57;0.40;;;;;;;3.62;77.47;96464.00;4935749;28;20042;-69
2020/12/04 06:49:47;;;;;;;0.80;0.80;;;;;;;3.66;76.62;96462.25;4943058;28;20019;-73
2020/12/04 06:52:16;;;;;;;;;;;;;;;3.61;76.55;96462.41;4936280;28;20047;-70
2020/12/04 06:54:47;;;;;;;0.70;0.70;;;;;;;3.60;77.29;96466.22;4914820;28;19923;-70
2020/12/04 06:57:13;;;;;;;0.63;0.63;;;;;;;3.60;76.83;96471.63;4939400;28;20046;-70
2020/12/04 06:59:41;;;;;;;0.82;0.82;;;;;;;3.56;77.45;96464.47;4911163;28;20225;-70
2020/12/04 07:02:10;;;;;;;2.35;0.93;;;;;;;3.53;77.94;96467.81;4921375;28;20035;-70
2020/12/04 07:04:39;;;;;;;1.75;0.90;;;;;;;3.50;77.98;96482.72;4909722;28;20047;-69
2020/12/04 07:07:12;;;;;;;1.73;0.70;;;;;;;3.58;78.57;96481.16;4951489;28;20028;-69
2020/12/04 07:09:39;;;;;;;1.50;0.68;;;;;;;3.60;77.50;96487.81;4940477;28;20027;-70
2020/12/04 07:12:06;;;;;;;0.73;0.70;;;;;;;3.66;78.44;96489.28;4914325;28;20071;-69
2020/12/04 07:14:32;;;;;;;0.80;0.75;;;;;;;3.67;77.83;96493.56;4928795;28;20040;-72
2020/12/04 07:16:58;;;;;;;0.77;0.63;;;;;;;3.76;77.25;96490.06;4962858;28;20039;-70
2020/12/04 07:19:27;;;;;;;1.20;0.65;;;;;;;3.79;77.70;96486.72;4954861;28;20035;-74
2020/12/04 07:21:52;;;;;;;0.60;0.60;;;;;;;3.80;77.02;96491.03;4904242;28;20040;-73
2020/12/04 07:24:18;;;;;;;0.75;0.75;;;;;;;3.82;77.65;96496.91;4937456;28;20043;-73
2020/12/04 07:26:51;;;;;;;0.47;0.47;;;;;;;3.87;77.91;96506.75;4930411;28;20031;-73
2020/12/04 07:29:17;;;;;;;0.65;0.60;;;;;;;3.85;77.59;96509.78;4932340;28;20032;-72
2020/12/04 07:31:47;;;;;;;0.70;0.70;;;;;;;3.86;77.65;96511.38;4944576;28;20047;-70
2020/12/04 07:34:18;;;;;;;0.40;0.40;;;;;;;3.82;77.56;96513.91;4924810;28;20036;-72
2020/12/04 07:36:48;;;;;;;3.47;0.80;;;;;;;3.83;78.44;96523.59;4950455;28;20020;-70
2020/12/04 07:39:24;;;;;;;0.47;0.47;;;;;;;3.82;78.24;96515.81;4931570;28;20060;-69
2020/12/04 07:41:50;;;;;;;7.43;0.60;;;;;;;3.77;78.10;96513.28;4922953;28;20070;-70
2020/12/04 07:44:17;;;;;;;0.68;0.68;;;;;;;3.78;78.75;96531.06;4923930;28;20127;-70
2020/12/04 07:46:42;;;;;;;0.40;0.40;;;;;;;3.78;79.40;96531.88;4925222;28;20043;-70
2020/12/04 07:49:10;;;;;;;1.35;0.50;;;;;;;3.79;79.42;96530.75;4912909;28;20036;-74
2020/12/04 07:51:38;;;;;;;0.30;0.30;;;;;;;3.82;79.28;96540.13;4913241;28;20016;-74
2020/12/04 07:54:06;;;;;;;5.43;0.30;;;;;;;3.82;79.17;96540.13;4931397;28;20051;-74
2020/12/04 07:56:33;;;;;;;1.30;0.52;;;;;;;3.82;79.80;96540.13;4924395;28;20106;-75
2020/12/04 07:59:05;;;;;;;0.45;0.45;;;;;;;3.83;78.77;96544.44;4925242;28;20326;-75
2020/12/04 08:01:39;;;;;;;4.63;0.40;;;;;;;3.79;79.28;96552.38;4923288;28;20034;-75
2020/12/04 08:04:04;;;;;;;0.40;0.40;;;;;;;3.79;79.72;96551.59;4909579;28;20102;-75
2020/12/04 08:06:30;;;;;;;1.67;0.40;;;;;;;3.80;79.27;96553.19;4904333;28;20040;-75
2020/12/04 08:09:07;;;;;;;0.25;0.17;;;;;;;3.82;79.99;96554.44;4911802;28;20042;-74
2020/12/04 08:11:35;;;;;;;0.30;0.30;;;;;;;3.82;79.80;96559.06;4934857;28;20055;-74
2020/12/04 08:14:03;;;;;;;0.20;0.20;;;;;;;3.87;79.68;96555.41;4921316;28;20055;-75
2020/12/04 08:16:31;;;;;;;0.20;0.20;;;;;;;3.88;79.59;96571.31;4917715;28;20055;-75
2020/12/04 08:19:03;;;;;;;0.95;0.30;;;;;;;3.92;79.76;96569.56;4944904;28;20032;-75
2020/12/04 08:21:28;;;;;;;0.30;0.17;;;;;;;3.96;79.81;96575.94;4910170;28;20086;-75
2020/12/04 08:23:54;;;;;;;0.30;0.30;;;;;;;3.97;80.44;96582.94;4913604;28;20052;-74
2020/12/04 08:26:20;;;;;;;6.40;0.30;;;;;;;3.97;79.98;96577.53;4932505;28;20092;-75
2020/12/04 08:28:55;;;;;;;0.30;0.30;;;;;;;3.98;80.44;96589.13;4930791;28;20034;-78
2020/12/04 08:31:23;;;;;;;0.20;0.20;;;;;;;4.00;80.09;96593.13;4929289;28;20028;-77
2020/12/04 08:33:48;;;;;;;3.13;0.10;;;;;;;4.01;80.03;96594.69;4931861;28;20028;-75
2020/12/04 08:36:13;;;;;;;0.22;0.22;;;;;;;4.01;79.72;96594.69;4914482;28;20035;-74
2020/12/04 08:38:51;;;;;;;0.20;0.20;;;;;;;4.05;79.92;96605.69;4931743;28;20051;-76
2020/12/04 08:41:18;;;;;;;0.35;0.20;;;;;;;4.04;79.76;96603.28;4936170;28;20394;-75
2020/12/04 08:43:44;;;;;;;0.47;0.30;;;;;;;4.02;79.79;96606.31;4919940;28;20032;-75
2020/12/04 08:46:10;;;;;;;0.20;0.10;;;;;;;4.01;80.30;96605.50;4928469;28;20636;-74
2020/12/04 08:48:38;;;;;;;1.58;0.30;;;;;;;4.04;80.38;96608.69;4912257;28;20140;-75
2020/12/04 08:51:06;;;;;;;0.10;0.10;;;;;;;4.09;80.60;96603.94;4918099;28;20032;-74
2020/12/04 08:53:33;;;;;;;0.35;0.32;;;;;;;4.13;80.18;96606.78;4922311;28;20508;-74
2020/12/04 08:55:59;;;;;;;1.00;0.50;;;;;;;4.18;79.66;96620.16;4912071;28;20026;-73
2020/12/04 08:58:27;;;;;;;1.50;0.43;;;;;;;4.16;79.66;96612.38;4922431;28;20028;-72
2020/12/04 09:00:54;;;;;;;0.20;0.20;;;;;;;4.13;80.23;96612.19;4888150;28;20036;-71
2020/12/04 09:03:21;;;;;;;0.30;0.30;;;;;;;4.16;80.18;96625.06;4914206;28;20127;-72
2020/12/04 09:05:47;;;;;;;2.15;0.43;;;;;;;4.23;80.23;96617.28;4930493;28;20028;-73
2020/12/04 09:08:13;;;;;;;0.20;0.20;;;;;;;4.32;79.91;96620.00;4921206;28;20499;-71
2020/12/04 09:10:39;;;;;;;0.52;0.30;;;;;;;4.37;79.54;96636.09;4925069;28;20071;-71
2020/12/04 09:13:06;;;;;;;4.18;0.30;;;;;;;4.39;79.63;96630.34;4925312;28;20028;-71
2020/12/04 09:15:32;;;;;;;2.17;0.20;;;;;;;4.37;78.92;96626.03;4922313;28;20027;-72
2020/12/04 09:17:57;;;;;;;0.35;0.32;;;;;;;4.42;78.93;96635.13;4925092;28;20525;-70
2020/12/04 09:20:26;;;;;;;0.52;0.40;;;;;;;4.46;78.68;96633.38;4898168;28;20063;-70
2020/12/04 09:22:54;;;;;;;4.80;0.80;;;;;;;4.44;78.23;96636.41;4933191;28;20040;-70
2020/12/04 09:25:21;;;;;;;0.10;0.10;;;;;;;4.49;78.31;96640.84;4941851;28;20378;-70
2020/12/04 09:27:47;;;;;;;1.45;0.40;;;;;;;4.55;78.15;96639.56;4939253;28;20043;-73
2020/12/04 09:30:15;;;;;;;0.95;0.20;;;;;;;4.60;78.19;96638.59;4914219;28;20036;-72
2020/12/04 09:32:45;;;;;;;0.38;0.20;;;;;;;4.57;77.62;96644.66;4935182;28;20107;-71
2020/12/04 09:35:11;;;;;;;1.20;0.20;;;;;;;4.49;77.59;96646.25;4925758;28;20032;-71
2020/12/04 09:37:38;;;;;;;0.50;0.22;;;;;;;4.45;77.73;96656.13;4919156;28;20062;-71
2020/12/04 09:40:07;;;;;;;0.50;0.28;;;;;;;4.43;77.92;96653.75;4929387;28;20291;-71
2020/12/04 09:42:33;;;;;;;0.30;0.30;;;;;;;4.44;77.74;96649.94;4933666;28;20023;-73
2020/12/04 09:44:59;;;;;;;0.75;0.45;;;;;;;4.49;78.10;96648.97;4941873;28;20118;-71
2020/12/04 09:47:25;;;;;;;0.30;0.20;;;;;;;4.52;77.75;96661.84;4929313;29;20031;-72
2020/12/04 09:49:51;;;;;;;7.43;0.68;;;;;;;4.51;77.24;96661.06;4937046;28;20067;-70
2020/12/04 09:52:18;;;;;;;2.17;0.28;;;;;;;4.53;77.84;96663.47;4939819;28;20028;-70
2020/12/04 09:54:46;;;;;;;0.28;0.13;;;;;;;4.51;77.67;96665.66;4932630;28;20043;-73
2020/12/04 09:57:13;;;;;;;2.75;0.30;;;;;;;4.51;77.76;96666.47;4950676;28;20049;-70
2020/12/04 09:59:39;;;;;;;1.30;0.32;;;;;;;4.49;77.07;96662.50;4931101;28;20039;-69
2020/12/04 10:02:06;;;;;;;0.90;0.10;;;;;;;4.44;76.95;96659.94;4943604;28;20028;-69
2020/12/04 10:04:32;;;;;;;6.03;0.65;;;;;;;4.41;77.01;96657.88;4914774;28;20039;-70
2020/12/04 10:06:58;;;;;;;11.52;0.47;;;;;;;4.43;76.13;96680.78;4941416;28;20032;-70
2020/12/04 10:09:25;;;;;;;0.98;0.30;;;;;;;4.40;75.40;96676.03;4903536;28;20072;-70
2020/12/04 10:11:51;;;;;;;1.83;0.30;;;;;;;4.34;75.88;96683.50;4929341;28;20373;-73
2020/12/04 10:14:18;;;;;;;3.47;0.55;;;;;;;4.35;75.43;96685.09;4938558;28;20031;-69
2020/12/04 10:16:46;;;;;;;0.88;0.30;;;;;;;4.35;75.07;96692.38;4928096;28;20027;-70
2020/12/04 10:19:13;;;;;;;2.75;0.50;;;;;;;4.35;75.24;96693.22;4926822;28;20080;-70
2020/12/04 10:21:39;;;;;;;6.47;0.20;;;;;;;4.33;75.02;96698.13;4912757;28;20122;-71
2020/12/04 10:24:06;;;;;;;7.95;0.68;;;;;;;4.30;74.76;96703.38;4926518;28;20504;-71
2020/12/04 10:26:35;;;;;;;1.70;0.30;;;;;;;4.33;74.14;96697.34;4920145;28;20366;-72
2020/12/04 10:29:02;;;;;;;2.05;0.40;;;;;;;4.34;73.93;96694.31;4923085;28;20088;-71
2020/12/04 10:31:27;;;;;;;1.80;0.30;;;;;;;4.35;74.03;96701.31;4919169;28;20405;-73
2020/12/04 10:33:53;;;;;;;0.95;0.30;;;;;;;4.40;73.18;96697.66;4943829;28;20047;-73
2020/12/04 10:36:21;;;;;;;3.30;0.08;;;;;;;4.48;73.59;96709.59;4938044;28;20054;-72
2020/12/04 10:38:50;;;;;;;1.52;0.20;;;;;;;4.50;72.18;96696.56;4896705;28;20323;-74
2020/12/04 10:41:16;;;;;;;3.88;0.40;;;;;;;4.54;71.85;96695.59;4910560;28;20387;-75
2020/12/04 10:43:44;;;;;;;0.55;0.20;;;;;;;4.65;71.34;96704.19;4928169;28;20036;-75
2020/12/04 10:46:12;;;;;;;0.25;0.10;;;;;;;4.82;71.30;96702.59;4927723;28;20032;-74
2020/12/04 10:48:37;;;;;;;0.43;0.13;;;;;;;4.97;70.54;96712.94;4939941;28;20050;-74
2020/12/04 10:51:02;;;;;;;0.60;0.30;;;;;;;5.17;69.59;96707.97;4912064;28;20462;-73
2020/12/04 10:53:29;;;;;;;2.53;0.30;;;;;;;5.35;68.90;96712.25;4916897;28;20032;-74
2020/12/04 10:55:54;;;;;;;0.90;0.30;;;;;;;5.42;67.76;96709.84;4929649;28;20046;-74
2020/12/04 10:58:20;;;;;;;1.70;0.17;;;;;;;5.52;67.00;96692.44;4900926;28;20040;-75
2020/12/04 11:00:48;;;;;;;2.85;0.55;;;;;;;5.71;66.22;96710.22;4935130;28;20036;-75
2020/12/04 11:03:33;;;;;;;3.22;0.50;;;;;;;5.84;65.78;96713.84;4910726;28;20465;-74
2020/12/04 11:05:58;;;;;;;7.57;0.43;;;;;;;5.97;64.06;96712.84;4924472;28;20035;-73
2020/12/04 11:08:24;;;;;;;6.22;0.57;;;;;;;6.05;64.26;96714.72;4905427;28;20036;-73
2020/12/04 11:10:49;;;;;;;1.73;0.75;;;;;;;6.07;63.83;96707.03;4911552;28;20031;-75
2020/12/04 11:13:15;;;;;;;0.98;0.45;;;;;;;6.09;63.47;96710.25;4916649;28;20113;-74
2020/12/04 11:15:41;;;;;;;2.58;0.45;;;;;;;6.13;62.58;96715.00;4930925;28;20036;-74
2020/12/04 11:18:07;;;;;;;1.85;0.40;;;;;;;6.09;62.06;96704.81;4937590;28;20063;-73
2020/12/04 11:20:32;;;;;;;6.38;0.45;;;;;;;6.19;62.68;96713.69;4926936;28;20088;-75
2020/12/04 11:22:58;;;;;;;2.88;0.35;;;;;;;6.26;63.22;96708.53;4948276;28;20080;-74
2020/12/04 11:25:23;;;;;;;2.85;0.35;;;;;;;6.35;61.98;96705.78;4911280;28;20036;-72
2020/12/04 11:27:49;;;;;;;0.52;0.30;;;;;;;6.42;61.62;96703.34;4919641;28;20477;-70
2020/12/04 11:30:17;;;;;;;0.20;0.13;;;;;;;6.49;61.09;96700.13;4928855;28;20078;-71
2020/12/04 11:32:45;;;;;;;4.75;0.38;;;;;;;6.64;60.30;96715.78;4913818;28;20124;-70
2020/12/04 11:35:11;;;;;;;1.05;0.50;;;;;;;6.77;59.10;96717.44;4963726;28;20032;-70
2020/12/04 11:37:38;;;;;;;0.98;0.30;;;;;;;6.76;59.26;96704.19;4917643;28;20028;-71
2020/12/04 11:40:06;;;;;;;0.40;0.20;;;;;;;6.80;58.90;96699.69;4936219;28;20019;-72
2020/12/04 11:42:32;;;;;;;1.85;0.20;;;;;;;6.82;58.32;96724.63;4913802;28;20035;-70
2020/12/04 11:44:57;;;;;;;3.53;0.40;;;;;;;6.84;58.70;96705.28;4902608;28;20039;-69